Time;durP1;ratioP1;P1;durP2;ratioP2;P2;SDS_P1;SDS_P2;PMS_P1;PMS_P2;Temp;Humidity;BMP_temperature;BMP_pressure;BME280_temperature;BME280_humidity;BME280_pressure;Samples;Min_cycle;Max_cycle;Signal;HPM_P1;HPM_P2
2022/10/15 00:00:17;;;;;;;4.00;0.60;;;;;;;17.24;76.10;96812.25;5052704;28;20210;-72
2022/10/15 00:02:42;;;;;;;1.43;0.70;;;;;;;17.29;76.08;96805.31;5052499;28;20178;-72
2022/10/15 00:05:08;;;;;;;0.90;0.73;;;;;;;17.32;75.83;96799.63;5050972;28;20209;-74
2022/10/15 00:07:33;;;;;;;2.17;0.70;;;;;;;17.35;75.92;96799.22;5051490;28;20179;-73
2022/10/15 00:09:59;;;;;;;4.40;0.70;;;;;;;17.37;75.95;96806.94;5051995;28;20179;-75
2022/10/15 00:12:24;;;;;;;1.67;0.60;;;;;;;17.32;76.12;96804.09;5051627;28;20693;-73
2022/10/15 00:14:50;;;;;;;1.83;0.63;;;;;;;17.34;75.83;96794.94;5051015;28;20593;-72
2022/10/15 00:17:15;;;;;;;2.53;0.70;;;;;;;17.33;76.01;96793.31;5050876;28;20210;-73
2022/10/15 00:19:40;;;;;;;1.53;0.60;;;;;;;17.33;76.06;96798.59;5052245;28;20218;-74
2022/10/15 00:22:06;;;;;;;2.90;0.80;;;;;;;17.17;76.90;96805.13;5059240;28;20266;-73
2022/10/15 00:24:31;;;;;;;0.70;0.50;;;;;;;17.32;76.36;96793.50;5051602;28;20206;-72
2022/10/15 00:26:57;;;;;;;0.80;0.50;;;;;;;17.33;76.55;96803.06;5050733;28;20207;-74
2022/10/15 00:29:22;;;;;;;0.80;0.60;;;;;;;17.35;76.26;96796.56;5051598;28;20269;-74
2022/10/15 00:31:48;;;;;;;1.23;0.80;;;;;;;17.39;76.24;96812.03;5050004;28;20657;-72
2022/10/15 00:34:13;;;;;;;2.43;1.60;;;;;;;17.44;75.89;96802.47;5051458;28;20294;-74
2022/10/15 00:36:38;;;;;;;0.80;0.50;;;;;;;17.40;76.21;96797.75;5050605;28;20290;-74
2022/10/15 00:39:05;;;;;;;0.80;0.60;;;;;;;17.39;76.12;96801.47;5049646;28;20248;-72
2022/10/15 00:41:34;;;;;;;1.30;0.67;;;;;;;17.36;76.40;96802.66;5056926;28;20202;-74
2022/10/15 00:44:02;;;;;;;1.00;0.53;;;;;;;17.37;76.52;96800.84;5049988;28;20512;-74
2022/10/15 00:46:37;;;;;;;1.47;0.50;;;;;;;17.39;76.46;96796.97;5049515;28;20432;-75
2022/10/15 00:49:17;;;;;;;1.00;0.60;;;;;;;17.27;77.08;96802.06;5049655;28;20457;-74
2022/10/15 00:51:46;;;;;;;0.90;0.60;;;;;;;17.37;76.91;96800.84;5046090;28;20467;-74
2022/10/15 00:54:13;;;;;;;3.00;1.30;;;;;;;17.33;77.04;96789.81;5059357;28;20451;-74
2022/10/15 00:56:40;;;;;;;1.50;0.60;;;;;;;17.36;77.18;96789.41;5031752;28;20465;-74
2022/10/15 00:59:06;;;;;;;1.00;0.80;;;;;;;17.44;76.64;96789.22;5051272;28;20512;-74
2022/10/15 01:01:32;;;;;;;2.03;0.70;;;;;;;17.40;76.90;96781.88;5049722;28;20434;-74
2022/10/15 01:03:58;;;;;;;0.90;0.60;;;;;;;17.41;76.93;96786.16;5051139;28;20444;-74
2022/10/15 01:06:25;;;;;;;1.00;0.50;;;;;;;17.45;76.75;96784.72;5049718;28;20265;-73
2022/10/15 01:08:51;;;;;;;3.93;0.50;;;;;;;17.46;76.65;96779.22;5049807;28;20433;-73
2022/10/15 01:11:37;;;;;;;1.50;0.53;;;;;;;17.47;76.73;96780.03;5050600;28;20440;-74
2022/10/15 01:14:40;;;;;;;1.43;0.70;;;;;;;17.47;76.83;96775.53;5046612;28;20405;-74
2022/10/15 01:17:34;;;;;;;1.30;0.60;;;;;;;17.51;76.70;96770.66;5046735;28;20456;-74
2022/10/15 01:20:33;;;;;;;1.00;0.60;;;;;;;17.50;76.73;96774.34;5049677;28;20421;-75
2022/10/15 01:23:10;;;;;;;0.90;0.60;;;;;;;17.54;76.60;96772.88;5054067;28;20928;-74
2022/10/15 01:26:13;;;;;;;0.90;0.50;;;;;;;17.50;76.84;96774.34;5041836;28;20980;-74
2022/10/15 01:28:57;;;;;;;2.03;0.60;;;;;;;17.53;76.85;96768.59;5043310;28;20458;-74
2022/10/15 01:31:50;;;;;;;1.73;0.53;;;;;;;17.53;76.68;96763.31;5050291;28;20430;-75
2022/10/15 01:34:43;;;;;;;0.80;0.50;;;;;;;17.55;76.66;96766.56;5050712;28;20446;-74
2022/10/15 01:37:14;;;;;;;0.80;0.50;;;;;;;17.57;76.83;96759.22;5046068;28;20492;-74
2022/10/15 01:40:07;;;;;;;1.57;0.50;;;;;;;17.53;77.13;96763.31;5033292;28;20489;-74
2022/10/15 01:42:42;;;;;;;2.13;0.57;;;;;;;17.56;77.33;96760.25;5053489;28;20425;-74
2022/10/15 01:45:09;;;;;;;2.03;0.53;;;;;;;17.57;77.10;96761.06;5050223;28;20801;-74
2022/10/15 01:47:41;;;;;;;0.90;0.60;;;;;;;17.61;77.13;96749.84;5049318;28;20437;-74
2022/10/15 01:50:07;;;;;;;2.57;0.57;;;;;;;17.60;76.96;96748.22;5050818;28;20536;-72
2022/10/15 01:52:36;;;;;;;3.90;0.50;;;;;;;17.53;77.56;96742.09;5051117;28;20485;-74
2022/10/15 01:55:02;;;;;;;1.37;0.53;;;;;;;17.49;78.07;96740.91;5049957;28;20446;-74
2022/10/15 01:57:29;;;;;;;1.80;0.60;;;;;;;17.58;77.52;96742.31;5047970;28;20473;-74
2022/10/15 01:59:54;;;;;;;4.40;1.03;;;;;;;17.63;77.39;96746.97;5050194;28;20453;-73
2022/10/15 02:02:20;;;;;;;1.07;0.60;;;;;;;17.62;77.40;96746.19;5016001;28;20433;-74
2022/10/15 02:04:45;;;;;;;0.80;0.60;;;;;;;17.61;77.60;96736.59;5051136;28;20238;-74
2022/10/15 02:07:32;;;;;;;1.30;0.53;;;;;;;17.62;77.72;96746.19;5048736;28;20269;-74
2022/10/15 02:10:26;;;;;;;1.20;0.50;;;;;;;17.65;77.53;96750.25;5049450;28;20190;-74
2022/10/15 02:13:01;;;;;;;0.80;0.50;;;;;;;17.66;77.73;96746.56;5045155;28;20426;-74
2022/10/15 02:15:34;;;;;;;0.80;0.50;;;;;;;17.66;77.69;96747.38;5048490;28;20445;-74
2022/10/15 02:18:11;;;;;;;7.03;0.73;;;;;;;17.68;77.65;96746.34;5048192;28;20425;-75
2022/10/15 02:20:48;;;;;;;1.30;0.60;;;;;;;17.66;77.70;96746.56;5046537;28;20420;-73
2022/10/15 02:23:44;;;;;;;0.80;0.50;;;;;;;17.73;77.70;96746.56;5050994;28;20792;-74
2022/10/15 02:26:10;;;;;;;1.87;0.50;;;;;;;17.63;78.21;96750.47;5031959;28;20481;-73
2022/10/15 02:28:38;;;;;;;1.00;0.40;;;;;;;17.66;78.28;96749.22;5048057;28;20434;-73
2022/10/15 02:31:04;;;;;;;0.80;0.40;;;;;;;17.63;78.30;96747.81;5049353;28;20442;-73
2022/10/15 02:33:31;;;;;;;1.43;0.50;;;;;;;17.73;77.98;96746.56;5040210;28;20429;-74
2022/10/15 02:35:57;;;;;;;1.00;0.50;;;;;;;17.64;78.58;96749.41;5050012;28;20495;-73
2022/10/15 02:38:24;;;;;;;1.43;0.60;;;;;;;17.75;78.01;96755.09;5048709;28;20503;-74
2022/10/15 02:40:50;;;;;;;2.40;0.50;;;;;;;17.77;77.96;96755.69;5057790;28;20474;-75
2022/10/15 02:43:18;;;;;;;1.37;0.60;;;;;;;17.79;77.74;96759.78;5055185;28;20483;-73
2022/10/15 02:45:44;;;;;;;1.33;0.53;;;;;;;17.72;78.21;96760.81;5053472;28;20792;-74
2022/10/15 02:48:09;;;;;;;2.80;0.53;;;;;;;17.77;78.03;96758.34;5061228;28;20515;-73
2022/10/15 02:50:35;;;;;;;1.10;0.50;;;;;;;17.80;77.86;96765.88;5053619;28;20270;-73
2022/10/15 02:53:00;;;;;;;0.90;0.50;;;;;;;17.77;78.02;96771.59;5053329;28;20187;-72
2022/10/15 02:55:26;;;;;;;1.00;0.50;;;;;;;17.84;77.84;96766.28;5053399;28;20597;-73
2022/10/15 02:57:51;;;;;;;2.03;0.50;;;;;;;17.82;78.03;96771.78;5052253;28;20187;-73
2022/10/15 03:00:17;;;;;;;0.70;0.40;;;;;;;17.81;78.29;96764.88;5053255;28;20187;-72
2022/10/15 03:02:43;;;;;;;1.00;0.60;;;;;;;17.84;78.18;96763.63;5053140;28;20604;-73
2022/10/15 03:05:08;;;;;;;2.10;0.60;;;;;;;17.78;78.45;96773.22;5053949;28;20214;-73
2022/10/15 03:07:34;;;;;;;2.73;0.50;;;;;;;17.85;78.40;96766.06;5068653;28;20421;-74
2022/10/15 03:09:59;;;;;;;1.20;0.60;;;;;;;17.87;78.51;96768.50;5053054;28;20264;-74
2022/10/15 03:12:25;;;;;;;4.07;0.70;;;;;;;17.91;78.13;96775.03;5028728;28;20586;-74
2022/10/15 03:14:51;;;;;;;1.67;0.50;;;;;;;17.92;78.16;96769.50;5051261;28;20203;-74
2022/10/15 03:17:16;;;;;;;1.97;0.60;;;;;;;17.91;78.31;96775.03;5050196;28;20211;-75
2022/10/15 03:19:42;;;;;;;1.97;1.13;;;;;;;17.87;78.58;96772.00;5051859;28;20499;-74
2022/10/15 03:22:07;;;;;;;0.70;0.40;;;;;;;17.88;78.50;96765.66;5070101;28;20194;-73
2022/10/15 03:24:33;;;;;;;1.00;0.50;;;;;;;17.90;78.67;96774.19;5073519;28;20248;-72
2022/10/15 03:26:58;;;;;;;1.40;0.50;;;;;;;17.93;78.41;96768.50;5072320;28;20257;-75
2022/10/15 03:29:24;;;;;;;0.70;0.40;;;;;;;17.96;78.24;96769.91;5068765;28;20638;-75
2022/10/15 03:31:49;;;;;;;0.80;0.50;;;;;;;17.98;78.44;96775.03;5053655;28;20183;-74
2022/10/15 03:34:15;;;;;;;0.80;0.50;;;;;;;17.97;78.58;96776.84;5052716;28;20199;-74
2022/10/15 03:36:40;;;;;;;0.80;0.50;;;;;;;17.91;79.10;96781.13;5051930;28;20701;-74
2022/10/15 03:39:07;;;;;;;0.80;0.40;;;;;;;17.98;78.61;96775.84;5053701;28;20187;-73
2022/10/15 03:41:33;;;;;;;0.90;0.50;;;;;;;18.00;78.74;96779.09;5053192;28;20183;-75
2022/10/15 03:44:02;;;;;;;0.73;0.43;;;;;;;17.99;78.65;96780.13;5050877;28;21084;-73
2022/10/15 03:46:28;;;;;;;1.43;0.50;;;;;;;18.03;78.68;96789.28;5053911;28;20680;-73
2022/10/15 03:48:53;;;;;;;0.80;0.40;;;;;;;18.05;78.55;96787.25;5057131;28;20465;-74
2022/10/15 03:51:19;;;;;;;1.03;0.60;;;;;;;18.07;78.59;96792.31;5050693;28;20269;-75
2022/10/15 03:53:44;;;;;;;0.70;0.40;;;;;;;18.08;78.53;96793.94;5050266;28;20669;-74
2022/10/15 03:56:10;;;;;;;3.23;0.57;;;;;;;18.10;78.45;96794.56;5059646;28;20289;-74
2022/10/15 03:58:35;;;;;;;0.80;0.40;;;;;;;18.06;78.77;96796.00;5051324;28;20318;-74
2022/10/15 04:01:01;;;;;;;3.43;0.63;;;;;;;18.03;79.15;96804.38;5052289;28;20268;-73
2022/10/15 04:03:26;;;;;;;0.77;0.50;;;;;;;18.05;79.08;96799.66;5054944;28;20189;-73
2022/10/15 04:05:52;;;;;;;0.90;0.50;;;;;;;18.09;78.86;96803.53;5056306;28;20731;-74
2022/10/15 04:08:18;;;;;;;0.90;0.50;;;;;;;18.10;78.78;96805.16;5051123;28;20183;-74
2022/10/15 04:10:43;;;;;;;1.20;0.50;;;;;;;18.08;78.62;96808.00;5050841;28;20191;-73
2022/10/15 04:13:09;;;;;;;0.90;0.50;;;;;;;18.07;78.90;96798.47;5048573;28;20503;-74
2022/10/15 04:15:38;;;;;;;2.33;0.50;;;;;;;18.06;79.06;96799.47;5051129;28;20206;-74
2022/10/15 04:18:03;;;;;;;1.93;0.50;;;;;;;18.12;78.82;96800.47;5051185;28;20191;-73
2022/10/15 04:20:29;;;;;;;5.03;0.50;;;;;;;18.14;78.67;96801.09;5045152;28;20445;-73
2022/10/15 04:22:55;;;;;;;2.10;0.40;;;;;;;18.13;78.44;96810.06;5050680;28;20194;-73
2022/10/15 04:25:20;;;;;;;1.03;0.60;;;;;;;18.14;78.51;96809.03;5049427;28;20294;-75
2022/10/15 04:27:46;;;;;;;0.80;0.50;;;;;;;18.12;78.57;96803.13;5050748;28;20217;-74
2022/10/15 04:30:12;;;;;;;1.00;0.50;;;;;;;18.15;78.50;96812.50;5052395;28;20218;-73
2022/10/15 04:32:38;;;;;;;0.80;0.50;;;;;;;18.15;78.41;96808.00;5057669;28;20219;-74
2022/10/15 04:35:04;;;;;;;1.07;0.50;;;;;;;18.14;78.46;96809.03;5050965;28;20461;-74
2022/10/15 04:37:32;;;;;;;1.57;0.60;;;;;;;18.15;78.26;96818.59;5041355;28;20207;-74
2022/10/15 04:39:57;;;;;;;0.80;0.50;;;;;;;18.09;78.21;96824.75;5051506;28;20789;-74
2022/10/15 04:42:23;;;;;;;6.20;0.53;;;;;;;18.15;78.05;96823.91;5059255;28;20469;-74
2022/10/15 04:44:48;;;;;;;1.47;0.50;;;;;;;18.09;78.43;96830.06;5046156;28;20235;-74
2022/10/15 04:47:14;;;;;;;4.70;0.60;;;;;;;18.14;78.03;96826.78;5049031;28;20183;-73
2022/10/15 04:49:39;;;;;;;3.00;0.50;;;;;;;18.17;77.86;96826.34;5050385;28;20182;-74
2022/10/15 04:52:05;;;;;;;1.83;0.47;;;;;;;18.16;77.87;96825.53;5059057;28;20234;-74
2022/10/15 04:54:30;;;;;;;0.90;0.50;;;;;;;18.19;77.75;96829.63;5049619;28;20302;-74
2022/10/15 04:56:55;;;;;;;2.70;0.60;;;;;;;18.17;77.57;96829.00;5050170;28;20286;-71
2022/10/15 04:59:21;;;;;;;1.00;0.50;;;;;;;18.12;77.80;96827.00;5050375;28;20605;-74
2022/10/15 05:01:46;;;;;;;3.00;0.60;;;;;;;18.14;77.70;96826.78;5057229;28;20222;-75
2022/10/15 05:04:12;;;;;;;4.10;0.60;;;;;;;18.18;77.69;96822.69;5050829;28;20274;-75
2022/10/15 05:06:38;;;;;;;0.93;0.50;;;;;;;18.19;77.52;96827.75;5049999;28;20274;-74
2022/10/15 05:09:03;;;;;;;3.63;0.60;;;;;;;18.20;77.38;96834.69;5057298;28;20635;-74
2022/10/15 05:11:29;;;;;;;1.00;0.50;;;;;;;18.19;77.33;96835.72;5042667;28;20194;-74
2022/10/15 05:13:56;;;;;;;0.80;0.50;;;;;;;18.19;77.42;96834.91;5044360;28;20191;-73
2022/10/15 05:16:24;;;;;;;7.20;0.60;;;;;;;18.19;77.20;96841.03;5049596;28;20215;-73
2022/10/15 05:18:51;;;;;;;1.87;0.50;;;;;;;18.19;77.21;96841.03;5047763;28;20453;-75
2022/10/15 05:21:17;;;;;;;3.00;0.50;;;;;;;18.20;77.14;96845.31;5039878;28;20500;-74
2022/10/15 05:23:43;;;;;;;1.00;0.50;;;;;;;18.20;77.14;96853.25;5055716;28;21049;-72
2022/10/15 05:26:11;;;;;;;1.33;0.53;;;;;;;18.20;76.97;96858.56;5052009;28;20443;-75
2022/10/15 05:28:37;;;;;;;1.13;0.50;;;;;;;18.18;76.79;96855.31;5049280;28;20437;-75
2022/10/15 05:31:11;;;;;;;1.00;0.50;;;;;;;18.15;76.90;96854.91;5059199;28;20474;-74
2022/10/15 05:33:36;;;;;;;1.70;0.50;;;;;;;18.17;76.79;96864.28;5056577;28;20551;-75
2022/10/15 05:36:18;;;;;;;1.63;0.60;;;;;;;18.16;76.52;96865.31;5050584;28;20466;-75
2022/10/15 05:38:44;;;;;;;0.90;0.50;;;;;;;18.16;76.41;96875.91;5044639;28;20677;-74
2022/10/15 05:41:10;;;;;;;0.80;0.57;;;;;;;18.16;76.24;96870.59;5056639;28;20445;-74
2022/10/15 05:43:35;;;;;;;1.90;0.60;;;;;;;18.18;76.35;96881.03;5049812;28;20864;-73
2022/10/15 05:46:00;;;;;;;0.70;0.40;;;;;;;18.19;76.16;96888.75;5048957;28;20278;-75
2022/10/15 05:48:26;;;;;;;0.80;0.60;;;;;;;18.20;76.01;96890.41;5049295;28;20262;-75
2022/10/15 05:50:51;;;;;;;5.27;0.60;;;;;;;18.20;75.94;96885.09;5051670;28;20215;-74
2022/10/15 05:53:17;;;;;;;2.00;0.50;;;;;;;18.20;75.93;96873.69;5050374;28;20193;-74
2022/10/15 05:55:42;;;;;;;0.90;0.50;;;;;;;18.18;75.85;96881.03;5050061;28;20211;-73
2022/10/15 05:58:08;;;;;;;4.70;0.80;;;;;;;18.17;75.99;96882.84;5048586;28;20236;-74
2022/10/15 06:00:33;;;;;;;0.90;0.70;;;;;;;18.16;75.82;96894.47;5053015;28;20189;-74
2022/10/15 06:02:59;;;;;;;0.90;0.70;;;;;;;18.15;75.83;96895.50;5053405;28;20672;-74
2022/10/15 06:05:24;;;;;;;1.53;0.50;;;;;;;18.15;75.83;96898.16;5048986;28;20207;-74
2022/10/15 06:07:50;;;;;;;1.33;0.70;;;;;;;18.15;75.65;96900.00;5047907;28;20274;-75
2022/10/15 06:10:16;;;;;;;0.80;0.60;;;;;;;18.12;75.35;96906.53;5000050;28;20638;-74
2022/10/15 06:12:43;;;;;;;1.67;0.70;;;;;;;18.11;75.43;96912.88;5032939;28;20191;-74
2022/10/15 06:15:09;;;;;;;9.23;0.77;;;;;;;18.15;75.49;96914.06;5019495;28;20437;-73
2022/10/15 06:17:34;;;;;;;1.90;0.60;;;;;;;18.16;75.31;96907.72;5057199;28;20464;-75
2022/10/15 06:20:00;;;;;;;0.93;0.53;;;;;;;18.16;75.33;96909.59;5058274;28;20941;-74
2022/10/15 06:22:25;;;;;;;1.20;0.80;;;;;;;18.17;75.29;96911.22;5053728;28;20194;-74
2022/10/15 06:24:52;;;;;;;0.80;0.57;;;;;;;18.16;75.19;96923.66;5054401;28;20211;-73
2022/10/15 06:27:17;;;;;;;6.30;0.70;;;;;;;18.17;74.84;96927.13;5052617;28;20191;-73
2022/10/15 06:29:43;;;;;;;2.07;0.80;;;;;;;18.13;75.02;96937.34;5059556;28;20428;-74
2022/10/15 06:32:09;;;;;;;2.80;0.80;;;;;;;18.14;74.96;96933.66;5057841;28;20189;-74
2022/10/15 06:34:34;;;;;;;3.47;0.73;;;;;;;18.16;74.71;96942.22;5057662;28;20305;-74
2022/10/15 06:37:00;;;;;;;1.80;1.20;;;;;;;18.19;74.78;96944.44;5056859;28;20548;-75
2022/10/15 06:39:25;;;;;;;3.37;1.77;;;;;;;18.18;74.65;96950.78;5053664;28;20244;-75
2022/10/15 06:41:51;;;;;;;4.60;1.10;;;;;;;18.15;74.27;96959.13;5058547;28;20797;-74
2022/10/15 06:44:16;;;;;;;2.30;1.27;;;;;;;18.18;74.20;96966.69;5052786;28;20753;-74
2022/10/15 06:46:41;;;;;;;2.50;0.93;;;;;;;18.21;74.18;96960.97;5053110;28;20236;-74
2022/10/15 06:49:07;;;;;;;1.40;1.10;;;;;;;18.21;74.13;96960.97;5053435;28;20262;-74
2022/10/15 06:51:33;;;;;;;1.70;1.40;;;;;;;18.22;74.10;96967.91;5062295;28;20194;-74
2022/10/15 06:53:58;;;;;;;1.50;0.90;;;;;;;18.22;73.90;96975.88;5053194;28;20187;-73
2022/10/15 06:56:23;;;;;;;2.93;1.00;;;;;;;18.23;73.99;96979.31;5052738;28;20217;-73
2022/10/15 06:58:49;;;;;;;3.27;1.00;;;;;;;18.22;73.83;96981.19;5059919;28;20190;-73
2022/10/15 07:01:15;;;;;;;7.70;1.13;;;;;;;18.23;73.41;96984.63;5063904;28;20194;-73
2022/10/15 07:03:41;;;;;;;6.93;1.10;;;;;;;18.23;73.56;96987.28;5052846;28;20211;-75
2022/10/15 07:06:08;;;;;;;2.70;1.10;;;;;;;18.22;73.52;96991.78;5052118;28;20477;-74
2022/10/15 07:08:34;;;;;;;8.77;1.60;;;;;;;18.25;73.59;96994.03;5045428;28;20278;-74
2022/10/15 07:11:03;;;;;;;1.60;1.23;;;;;;;18.26;73.74;96997.47;5053521;28;20433;-72
2022/10/15 07:13:29;;;;;;;5.03;1.33;;;;;;;18.27;73.64;97002.56;5044659;28;20795;-75
2022/10/15 07:15:55;;;;;;;1.53;1.23;;;;;;;18.29;73.46;97001.56;5035532;28;20472;-74
2022/10/15 07:18:21;;;;;;;2.60;1.20;;;;;;;18.30;73.40;97000.53;5052486;28;20708;-74
2022/10/15 07:20:46;;;;;;;1.57;1.00;;;;;;;18.32;73.35;97003.81;5053052;28;20592;-72
2022/10/15 07:23:12;;;;;;;2.67;1.20;;;;;;;18.34;73.45;97007.06;5053080;28;20455;-75
2022/10/15 07:25:38;;;;;;;3.40;1.57;;;;;;;18.37;73.43;97011.97;5051762;28;20219;-74
2022/10/15 07:28:04;;;;;;;3.10;1.00;;;;;;;18.40;73.51;97014.19;5052216;28;20240;-75
2022/10/15 07:30:30;;;;;;;1.63;1.20;;;;;;;18.41;73.50;97013.16;5044374;28;20697;-75
2022/10/15 07:32:57;;;;;;;5.10;1.20;;;;;;;18.44;73.43;97012.75;5051709;28;20433;-75
2022/10/15 07:35:23;;;;;;;2.23;1.20;;;;;;;18.45;73.28;97014.38;5052312;28;20229;-74
2022/10/15 07:37:49;;;;;;;1.30;1.03;;;;;;;18.48;73.15;97021.09;5051616;28;20462;-75
2022/10/15 07:40:16;;;;;;;3.13;1.20;;;;;;;18.48;73.09;97024.59;5052871;28;20453;-73
2022/10/15 07:42:41;;;;;;;4.30;0.90;;;;;;;18.47;72.95;97024.78;5057996;28;20436;-74
2022/10/15 07:45:07;;;;;;;1.87;1.03;;;;;;;18.49;73.04;97028.88;5059145;28;20528;-75
2022/10/15 07:47:32;;;;;;;1.30;1.17;;;;;;;18.54;73.12;97028.25;5050442;28;20548;-73
2022/10/15 07:49:58;;;;;;;1.33;0.80;;;;;;;18.42;73.16;97031.53;5050254;28;20202;-74
2022/10/15 07:52:23;;;;;;;2.70;0.70;;;;;;;18.46;73.24;97031.13;5053437;28;20274;-74
2022/10/15 07:54:48;;;;;;;1.53;0.80;;;;;;;18.52;73.18;97040.91;5052231;28;20234;-74
2022/10/15 07:57:14;;;;;;;1.93;0.80;;;;;;;18.54;73.05;97039.66;5051501;28;20298;-72
2022/10/15 07:59:40;;;;;;;3.03;0.90;;;;;;;18.53;72.98;97040.69;5052322;28;20190;-74
2022/10/15 08:02:05;;;;;;;1.10;0.70;;;;;;;18.58;72.85;97040.09;5060078;28;20573;-74
2022/10/15 08:04:33;;;;;;;1.20;0.80;;;;;;;18.62;72.91;97043.13;5051581;28;20682;-75
2022/10/15 08:06:58;;;;;;;1.67;0.97;;;;;;;18.67;72.92;97044.16;5051450;28;20186;-73
2022/10/15 08:09:24;;;;;;;1.53;0.80;;;;;;;18.71;72.97;97048.00;5052281;28;20491;-74
2022/10/15 08:11:49;;;;;;;2.90;0.80;;;;;;;18.74;73.01;97049.44;5052210;28;20215;-73
2022/10/15 08:14:15;;;;;;;1.83;1.40;;;;;;;18.76;72.74;97050.06;5050802;28;20274;-73
2022/10/15 08:16:40;;;;;;;4.73;1.10;;;;;;;18.77;72.80;97051.69;5051418;28;20682;-74
2022/10/15 08:19:05;;;;;;;2.03;0.60;;;;;;;18.82;72.63;97045.75;5051240;28;20221;-75
2022/10/15 08:21:31;;;;;;;6.13;0.70;;;;;;;18.84;72.39;97039.19;5044895;28;20266;-74
2022/10/15 08:23:56;;;;;;;1.53;0.80;;;;;;;18.87;72.58;97036.13;5050737;28;20183;-73
2022/10/15 08:26:22;;;;;;;3.73;0.90;;;;;;;18.90;72.80;97042.06;5051145;28;20195;-74
2022/10/15 08:28:47;;;;;;;2.40;0.83;;;;;;;18.97;72.95;97035.69;5051576;28;20187;-73
2022/10/15 08:31:13;;;;;;;1.87;1.27;;;;;;;19.04;72.50;97040.97;5051622;28;20191;-74
2022/10/15 08:33:39;;;;;;;1.77;1.07;;;;;;;19.08;72.95;97034.22;5049972;28;20187;-74
2022/10/15 08:36:05;;;;;;;0.90;0.70;;;;;;;19.13;72.85;97028.28;5049640;28;20305;-73
2022/10/15 08:38:30;;;;;;;1.50;0.60;;;;;;;19.15;73.00;97029.69;5050754;28;20198;-73
2022/10/15 08:40:57;;;;;;;3.47;0.73;;;;;;;19.19;73.17;97041.53;5054893;28;20425;-73
2022/10/15 08:43:26;;;;;;;2.20;0.93;;;;;;;19.21;73.44;97051.13;5051242;28;20183;-74
2022/10/15 08:45:55;;;;;;;1.30;0.90;;;;;;;19.26;73.40;97046.81;5051817;28;20468;-74
2022/10/15 08:48:33;;;;;;;2.60;0.80;;;;;;;19.24;73.58;97053.38;5032265;28;20433;-75
2022/10/15 08:51:03;;;;;;;1.00;0.90;;;;;;;19.25;73.56;97053.16;5052769;28;20803;-72
2022/10/15 08:53:29;;;;;;;1.17;1.03;;;;;;;19.26;73.49;97061.97;5050078;28;20430;-73
2022/10/15 08:55:57;;;;;;;2.03;0.90;;;;;;;19.22;73.60;97060.75;5049433;28;20976;-74
2022/10/15 08:58:29;;;;;;;1.30;1.00;;;;;;;19.16;73.87;97057.88;5048657;28;20947;-75
2022/10/15 09:00:58;;;;;;;1.60;0.70;;;;;;;19.18;73.74;97061.16;5050126;28;20487;-74
2022/10/15 09:03:30;;;;;;;1.43;0.67;;;;;;;19.18;73.68;97061.16;5033258;28;20432;-74
2022/10/15 09:06:06;;;;;;;3.80;1.33;;;;;;;19.22;73.66;97052.78;5049929;28;20448;-74
2022/10/15 09:08:35;;;;;;;5.90;0.90;;;;;;;19.27;73.91;97058.28;5041259;28;20977;-74
2022/10/15 09:11:06;;;;;;;1.73;0.70;;;;;;;19.32;74.06;97055.78;5051045;28;20462;-74
2022/10/15 09:13:42;;;;;;;2.33;0.70;;;;;;;19.36;74.09;97054.34;5048726;28;20769;-74
2022/10/15 09:16:37;;;;;;;1.00;0.80;;;;;;;19.41;74.01;97051.84;5051852;28;20518;-74
2022/10/15 09:19:05;;;;;;;2.80;0.80;;;;;;;19.40;74.00;97052.06;5046203;28;20434;-73
2022/10/15 09:21:31;;;;;;;0.90;0.80;;;;;;;19.44;73.73;97051.44;5041115;28;20839;-74
2022/10/15 09:24:00;;;;;;;1.47;1.30;;;;;;;19.45;73.28;97055.72;5050803;28;20433;-74
2022/10/15 09:26:39;;;;;;;2.27;0.80;;;;;;;19.42;73.10;97058.78;5049694;28;20422;-72
2022/10/15 09:29:21;;;;;;;2.10;0.60;;;;;;;19.38;72.75;97065.56;5050699;28;20417;-73
2022/10/15 09:32:26;;;;;;;0.90;0.70;;;;;;;19.41;72.75;97069.63;5049022;28;20422;-74
2022/10/15 09:35:38;;;;;;;1.97;0.80;;;;;;;19.48;72.61;97070.41;5029554;28;20821;-75
2022/10/15 09:38:22;;;;;;;0.80;0.53;;;;;;;19.44;72.16;97070.03;5041318;28;20765;-75
2022/10/15 09:40:51;;;;;;;2.40;0.70;;;;;;;19.51;71.92;97075.31;5053487;28;20903;-74
2022/10/15 09:43:26;;;;;;;1.73;0.60;;;;;;;19.62;71.60;97085.25;5052328;28;20467;-73
2022/10/15 09:45:51;;;;;;;1.20;0.60;;;;;;;19.74;70.94;97080.09;5032912;28;21025;-74
2022/10/15 09:48:18;;;;;;;1.03;0.60;;;;;;;19.98;70.62;97085.69;5048346;28;20426;-74
2022/10/15 09:50:55;;;;;;;1.50;0.77;;;;;;;20.25;69.65;97080.97;5050038;28;20178;-74
2022/10/15 09:53:30;;;;;;;4.77;0.70;;;;;;;20.49;69.32;97075.84;5045343;28;20437;-73
2022/10/15 09:56:19;;;;;;;1.00;0.50;;;;;;;20.54;68.13;97077.88;5049402;28;20484;-74
2022/10/15 09:58:56;;;;;;;1.20;0.60;;;;;;;20.47;66.64;97093.91;5040310;28;20458;-74
2022/10/15 10:01:29;;;;;;;1.10;0.60;;;;;;;20.86;66.79;97089.22;5052653;28;20541;-75
2022/10/15 10:04:10;;;;;;;3.63;0.70;;;;;;;20.89;65.18;97092.50;5054713;28;20503;-74
2022/10/15 10:06:52;;;;;;;1.60;0.67;;;;;;;20.82;64.37;97097.88;5049645;28;20954;-74
2022/10/15 10:09:20;;;;;;;0.90;0.60;;;;;;;21.00;63.83;97099.75;5048509;28;20456;-74
2022/10/15 10:11:49;;;;;;;0.80;0.60;;;;;;;21.43;63.26;97087.34;5049232;28;20432;-74
2022/10/15 10:14:27;;;;;;;0.80;0.60;;;;;;;22.02;62.97;97097.47;5048840;28;20436;-74
2022/10/15 10:17:14;;;;;;;1.00;0.60;;;;;;;22.61;61.68;97094.06;5049808;28;20508;-75
2022/10/15 10:19:39;;;;;;;2.03;0.80;;;;;;;22.97;58.43;97101.00;5043255;28;20429;-73
2022/10/15 10:22:16;;;;;;;1.70;1.00;;;;;;;23.46;56.28;97105.22;5048041;28;20437;-73
2022/10/15 10:24:41;;;;;;;0.80;0.63;;;;;;;23.88;55.77;97101.44;5050339;28;20203;-74
2022/10/15 10:27:24;;;;;;;2.50;0.70;;;;;;;24.33;54.13;97103.28;5057359;28;20579;-74
2022/10/15 10:30:01;;;;;;;4.40;0.90;;;;;;;24.25;52.30;97106.38;5048220;28;20275;-73
2022/10/15 10:32:29;;;;;;;5.63;0.70;;;;;;;24.38;51.39;97108.72;5049117;28;20512;-74
2022/10/15 10:34:55;;;;;;;1.20;0.80;;;;;;;24.57;51.35;97103.13;5048662;28;20560;-74
2022/10/15 10:37:20;;;;;;;1.00;0.70;;;;;;;24.60;51.27;97101.81;5047913;28;20491;-75
2022/10/15 10:39:52;;;;;;;1.93;0.70;;;;;;;24.81;50.48;97109.13;5049653;28;20182;-74
2022/10/15 10:42:18;;;;;;;3.20;0.80;;;;;;;25.04;49.14;97101.09;5051847;28;20222;-73
2022/10/15 10:44:45;;;;;;;5.27;0.80;;;;;;;25.12;50.07;97106.03;5055245;28;20453;-75
2022/10/15 10:47:19;;;;;;;1.20;0.70;;;;;;;25.32;49.01;97108.16;5047700;28;20592;-75
2022/10/15 10:49:56;;;;;;;1.80;0.80;;;;;;;25.53;49.16;97109.25;4999069;28;20433;-75
2022/10/15 10:52:24;;;;;;;2.33;0.80;;;;;;;25.34;48.33;97106.03;4984785;28;20433;-75
2022/10/15 10:54:57;;;;;;;1.40;1.10;;;;;;;24.92;48.09;97110.06;5031507;28;20441;-74
2022/10/15 10:57:32;;;;;;;1.10;0.83;;;;;;;24.73;49.08;97114.91;5048803;28;20866;-75
2022/10/15 10:59:57;;;;;;;3.50;2.20;;;;;;;24.60;48.97;97102.63;5033376;28;20433;-75
2022/10/15 11:02:23;;;;;;;3.53;1.00;;;;;;;24.27;49.45;97104.25;5002201;28;20429;-75
2022/10/15 11:04:48;;;;;;;2.70;0.87;;;;;;;23.96;50.46;97101.06;5016075;28;20329;-74
2022/10/15 11:07:17;;;;;;;4.43;1.20;;;;;;;23.93;50.80;97107.69;5052090;28;20191;-75
2022/10/15 11:09:58;;;;;;;2.23;0.73;;;;;;;23.80;50.75;97099.97;5052038;28;20194;-75
2022/10/15 11:12:32;;;;;;;2.70;0.90;;;;;;;23.77;51.84;97106.59;5068701;28;20431;-75
2022/10/15 11:15:23;;;;;;;1.43;0.80;;;;;;;23.41;50.97;97105.94;5052925;28;20444;-74
2022/10/15 11:17:58;;;;;;;1.37;0.70;;;;;;;23.44;51.05;97101.97;5047202;28;20471;-75
2022/10/15 11:20:36;;;;;;;2.70;0.80;;;;;;;23.54;51.10;97096.81;5051238;28;21464;-75
2022/10/15 11:23:10;;;;;;;3.03;0.80;;;;;;;23.71;50.64;97091.50;5051474;28;20452;-74
2022/10/15 11:25:58;;;;;;;2.33;0.80;;;;;;;23.34;50.43;97107.91;5052336;28;20452;-74
2022/10/15 11:29:16;;;;;;;3.27;0.80;;;;;;;23.39;50.29;97093.84;5051011;28;20505;-75
2022/10/15 11:32:09;;;;;;;1.67;0.80;;;;;;;23.37;50.96;97091.41;5033844;28;20435;-75
2022/10/15 11:34:53;;;;;;;1.10;0.70;;;;;;;23.22;50.67;97085.75;5044204;28;20603;-75
2022/10/15 11:37:36;;;;;;;5.50;1.00;;;;;;;23.31;51.00;97103.06;5034165;28;20487;-73
2022/10/15 11:40:35;;;;;;;1.23;0.73;;;;;;;23.03;50.92;97093.91;5059433;28;20432;-73
2022/10/15 11:43:09;;;;;;;1.10;0.70;;;;;;;22.96;51.02;97093.22;5056513;28;20421;-74
2022/10/15 11:45:53;;;;;;;6.30;0.73;;;;;;;23.17;50.42;97097.97;5027025;28;20964;-76